Time;durP1;ratioP1;P1;durP2;ratioP2;P2;SDS_P1;SDS_P2;PMS_P1;PMS_P2;Temp;Humidity;BMP_temperature;BMP_pressure;BME280_temperature;BME280_humidity;BME280_pressure;Samples;Min_cycle;Max_cycle;Signal;HPM_P1;HPM_P2
2021/12/14 00:01:01;;;;;;;4.93;1.67;;;26.50;94.30;;;;;;5099789;27;19935;-76
2021/12/14 00:03:33;;;;;;;4.40;0.90;;;26.30;94.60;;;;;;5119655;27;20102;-75
2021/12/14 00:06:01;;;;;;;7.28;1.77;;;26.30;94.60;;;;;;5119917;27;20035;-75
2021/12/14 00:08:35;;;;;;;9.02;1.77;;;26.30;94.50;;;;;;5125283;27;20449;-75
2021/12/14 00:16:11;;;;;;;3.35;1.02;;;27.00;94.80;;;;;;5120909;27;20019;-76
2021/12/14 00:18:41;;;;;;;5.35;1.05;;;27.40;94.70;;;;;;5126487;27;20027;-76
2021/12/14 00:21:19;;;;;;;7.03;1.67;;;27.80;94.30;;;;;;5120272;27;20473;-76
2021/12/14 00:24:06;;;;;;;5.78;1.42;;;28.00;93.20;;;;;;5119657;27;20031;-74
2021/12/14 00:26:50;;;;;;;4.25;1.23;;;28.40;93.50;;;;;;5120124;27;20028;-74
2021/12/14 00:29:28;;;;;;;3.88;1.65;;;28.70;91.90;;;;;;5124632;27;20043;-74
2021/12/14 00:31:58;;;;;;;7.15;1.45;;;28.80;93.20;;;;;;5125509;27;20019;-74
2021/12/14 00:34:36;;;;;;;5.88;1.83;;;29.20;91.40;;;;;;5121286;27;20035;-74
2021/12/14 00:37:19;;;;;;;6.05;2.03;;;29.20;92.20;;;;;;5125564;27;20537;-73
2021/12/14 00:39:48;;;;;;;12.52;1.73;;;29.00;89.50;;;;;;5119973;27;20099;-73
2021/12/14 00:42:16;;;;;;;6.07;1.30;;;29.20;90.40;;;;;;5119203;27;20023;-75
2021/12/14 00:44:45;;;;;;;3.17;1.13;;;29.20;90.50;;;;;;5119512;27;20020;-75
2021/12/14 00:47:13;;;;;;;3.80;1.00;;;29.30;91.00;;;;;;5122278;27;20072;-76
2021/12/14 00:49:41;;;;;;;5.10;1.95;;;29.70;90.00;;;;;;5126383;27;20043;-76
2021/12/14 00:52:10;;;;;;;5.45;1.05;;;29.40;88.30;;;;;;5120451;27;20030;-76
2021/12/14 00:54:38;;;;;;;7.90;1.10;;;29.50;90.70;;;;;;5121434;27;20032;-77
2021/12/14 00:57:07;;;;;;;3.53;0.77;;;29.70;89.40;;;;;;5121219;27;20027;-75
2021/12/14 00:59:35;;;;;;;6.07;1.10;;;30.00;88.60;;;;;;5120876;27;20024;-76
2021/12/14 01:02:12;;;;;;;2.97;1.30;;;30.10;87.30;;;;;;5123426;27;20050;-74
2021/12/14 01:04:51;;;;;;;2.97;0.90;;;30.30;86.00;;;;;;5122678;27;20047;-75
2021/12/14 01:07:21;;;;;;;5.90;1.00;;;30.50;84.50;;;;;;5107047;27;20027;-76
2021/12/14 01:09:52;;;;;;;4.97;0.77;;;30.20;82.90;;;;;;5127636;27;20023;-73
2021/12/14 01:12:35;;;;;;;3.70;1.13;;;30.30;87.00;;;;;;5119103;27;20019;-72
2021/12/14 01:15:23;;;;;;;4.32;0.63;;;30.70;87.30;;;;;;5126732;27;20378;-72
2021/12/14 01:18:01;;;;;;;5.57;1.02;;;31.10;84.30;;;;;;5122689;27;20027;-74
2021/12/14 01:20:37;;;;;;;2.28;0.70;;;31.20;84.50;;;;;;5120172;27;20027;-74
2021/12/14 01:23:15;;;;;;;2.38;0.65;;;31.20;82.60;;;;;;5126543;27;20129;-72
2021/12/14 01:25:45;;;;;;;3.28;0.90;;;31.40;84.90;;;;;;5125046;27;20062;-75
2021/12/14 01:28:22;;;;;;;6.95;0.93;;;31.40;82.10;;;;;;5122969;27;20119;-74
2021/12/14 01:31:09;;;;;;;3.90;1.23;;;31.10;79.00;;;;;;5125302;27;20027;-73
2021/12/14 01:33:39;;;;;;;2.40;0.80;;;31.00;79.60;;;;;;5125870;27;20034;-73
2021/12/14 01:36:24;;;;;;;7.18;1.67;;;31.00;80.30;;;;;;5124651;27;20034;-73
2021/12/14 01:41:41;;;;;;;2.20;0.68;;;31.20;79.70;;;;;;5126505;27;20100;-71
2021/12/14 01:44:10;;;;;;;2.85;1.00;;;31.50;80.00;;;;;;5124398;27;20027;-72
2021/12/14 01:46:44;;;;;;;4.05;0.70;;;31.60;81.50;;;;;;5123679;27;20030;-74
2021/12/14 01:49:15;;;;;;;1.70;0.50;;;31.80;81.20;;;;;;5130589;27;20044;-74
2021/12/14 01:51:46;;;;;;;4.38;0.60;;;31.90;79.60;;;;;;5127260;27;20092;-78
2021/12/14 01:54:16;;;;;;;4.55;0.75;;;31.80;79.90;;;;;;5132455;27;20023;-74
2021/12/14 01:56:45;;;;;;;2.17;0.60;;;32.00;79.20;;;;;;5129386;27;20018;-75
2021/12/14 01:59:23;;;;;;;2.95;0.60;;;31.90;77.00;;;;;;5126547;27;20106;-76
2021/12/14 02:02:30;;;;;;;2.28;0.52;;;31.90;77.10;;;;;;5123879;27;20095;-75
2021/12/14 02:04:48;;;;;;;3.70;0.50;;;32.00;75.80;;;;;;5126398;27;20122;-74
2021/12/14 02:07:19;;;;;;;2.33;0.82;;;32.10;73.80;;;;;;5128967;27;20385;-76
2021/12/14 02:09:54;;;;;;;2.92;0.70;;;32.10;74.80;;;;;;5122583;27;20042;-73
2021/12/14 02:12:27;;;;;;;4.18;0.70;;;32.40;76.30;;;;;;5130715;27;20474;-74
2021/12/14 02:15:06;;;;;;;3.33;1.02;;;32.10;74.50;;;;;;5124570;27;20564;-72
2021/12/14 02:17:34;;;;;;;2.33;0.65;;;32.10;73.20;;;;;;5123668;27;20023;-74
2021/12/14 02:20:03;;;;;;;7.88;1.05;;;32.40;76.20;;;;;;5119221;27;20036;-74
2021/12/14 02:22:30;;;;;;;5.85;0.85;;;32.60;72.70;;;;;;5128828;27;20038;-75
2021/12/14 02:24:58;;;;;;;2.42;0.68;;;32.50;71.90;;;;;;5130334;27;20427;-74
2021/12/14 02:27:42;;;;;;;3.30;0.63;;;32.30;72.20;;;;;;5127923;27;22248;-76
2021/12/14 02:30:16;;;;;;;2.65;0.50;;;32.20;73.30;;;;;;5128518;27;20015;-74
2021/12/14 02:32:44;;;;;;;2.70;0.77;;;32.30;73.50;;;;;;5128990;27;20023;-75
2021/12/14 02:35:15;;;;;;;11.27;1.23;;;32.20;74.60;;;;;;5124451;27;20023;-75
2021/12/14 02:37:45;;;;;;;3.25;0.80;;;32.10;73.60;;;;;;5128387;27;20031;-75
2021/12/14 02:40:20;;;;;;;7.45;1.17;;;32.30;73.60;;;;;;5129955;28;20047;-74
2021/12/14 02:42:51;;;;;;;;;;;32.60;70.90;;;;;;5128954;28;20058;-73
2021/12/14 02:45:24;;;;;;;10.20;1.00;;;32.70;71.70;;;;;;5112416;28;20403;-73
2021/12/14 02:47:51;;;;;;;6.55;0.90;;;32.60;69.30;;;;;;5124308;28;20031;-76
2021/12/14 02:50:21;;;;;;;2.75;0.80;;;32.50;70.60;;;;;;5115655;28;20030;-75
2021/12/14 02:52:48;;;;;;;4.10;1.13;;;32.60;71.10;;;;;;5126717;28;20063;-74
2021/12/14 02:55:21;;;;;;;3.42;0.68;;;32.70;70.80;;;;;;5129434;28;20023;-73
2021/12/14 02:57:52;;;;;;;8.02;1.17;;;32.70;71.00;;;;;;5124483;28;20019;-74
2021/12/14 03:00:30;;;;;;;4.20;0.88;;;32.80;72.70;;;;;;5127403;28;20147;-72
2021/12/14 03:02:58;;;;;;;6.70;1.38;;;32.70;71.90;;;;;;5131575;27;20038;-73
2021/12/14 03:05:30;;;;;;;3.97;0.70;;;32.40;73.90;;;;;;5127711;27;20517;-73
2021/12/14 03:08:09;;;;;;;4.82;1.45;;;31.70;74.90;;;;;;5125932;27;20046;-77
2021/12/14 03:10:55;;;;;;;2.33;0.98;;;31.30;75.50;;;;;;5134800;27;20509;-76
2021/12/14 03:13:27;;;;;;;6.05;1.13;;;31.20;75.60;;;;;;5118640;27;20091;-74
2021/12/14 03:15:57;;;;;;;5.90;1.65;;;31.30;77.60;;;;;;5130139;27;20065;-74
2021/12/14 03:18:29;;;;;;;2.88;1.02;;;31.40;76.60;;;;;;5129344;27;20027;-76
2021/12/14 03:21:00;;;;;;;3.00;0.90;;;31.20;76.60;;;;;;5131905;27;20114;-73
2021/12/14 03:23:42;;;;;;;6.80;1.17;;;31.10;76.80;;;;;;5134743;27;20064;-72
2021/12/14 03:26:12;;;;;;;3.47;0.82;;;31.30;76.60;;;;;;5134027;27;20039;-74
2021/12/14 03:28:40;;;;;;;4.07;0.80;;;31.50;76.60;;;;;;5135188;27;20134;-73
2021/12/14 03:31:10;;;;;;;2.78;0.80;;;31.40;75.70;;;;;;5110893;27;20412;-73
2021/12/14 03:33:45;;;;;;;3.33;1.38;;;31.30;75.60;;;;;;5118813;27;20125;-79
2021/12/14 03:36:17;;;;;;;3.60;0.68;;;31.30;76.80;;;;;;5128266;27;20020;-74
2021/12/14 03:38:53;;;;;;;4.78;0.75;;;31.40;77.20;;;;;;5128572;27;20049;-73
2021/12/14 03:41:47;;;;;;;5.32;0.77;;;31.40;75.90;;;;;;5126008;27;20017;-73
2021/12/14 03:44:27;;;;;;;4.28;1.50;;;31.60;75.70;;;;;;5121925;27;20034;-73
2021/12/14 03:46:57;;;;;;;4.88;0.80;;;31.80;75.50;;;;;;5120638;27;20158;-74
2021/12/14 03:49:35;;;;;;;2.75;0.93;;;31.70;75.60;;;;;;5122092;27;20034;-74
2021/12/14 03:52:10;;;;;;;3.38;0.95;;;31.50;77.00;;;;;;5121405;27;21482;-73
2021/12/14 03:54:39;;;;;;;4.22;0.98;;;31.40;77.20;;;;;;5109224;27;20108;-73
2021/12/14 03:57:07;;;;;;;2.53;1.10;;;31.30;77.00;;;;;;5118952;27;20236;-73
2021/12/14 03:59:35;;;;;;;6.03;1.08;;;31.30;77.80;;;;;;5117993;27;20041;-73
2021/12/14 04:02:05;;;;;;;1.80;0.85;;;31.30;77.20;;;;;;5119982;27;20019;-75
2021/12/14 04:04:37;;;;;;;5.05;1.05;;;31.40;76.60;;;;;;5127821;27;20393;-74
2021/12/14 04:07:09;;;;;;;2.10;0.52;;;31.30;76.90;;;;;;5120372;27;20419;-73
2021/12/14 04:09:38;;;;;;;4.57;1.05;;;30.90;76.80;;;;;;5122720;27;20130;-77
2021/12/14 04:12:13;;;;;;;4.97;0.80;;;30.70;79.30;;;;;;5120072;27;20431;-75
2021/12/14 04:14:45;;;;;;;;;;;30.90;78.40;;;;;;5123441;27;20031;-76
2021/12/14 04:17:13;;;;;;;5.40;1.05;;;31.20;78.20;;;;;;5122260;27;19907;-76
2021/12/14 04:19:41;;;;;;;4.20;0.73;;;31.40;77.30;;;;;;5118490;27;20201;-73
2021/12/14 04:22:16;;;;;;;5.85;0.70;;;31.70;78.90;;;;;;5116756;27;20022;-74
2021/12/14 04:24:46;;;;;;;4.63;0.60;;;31.70;76.00;;;;;;5121996;27;20047;-76
2021/12/14 04:27:19;;;;;;;1.65;0.65;;;31.70;77.00;;;;;;5120785;27;20049;-75
2021/12/14 04:29:48;;;;;;;4.05;0.98;;;31.50;77.50;;;;;;5102775;27;20043;-76
2021/12/14 04:32:18;;;;;;;2.42;1.33;;;31.30;76.70;;;;;;5066994;28;20688;-73
2021/12/14 04:34:46;;;;;;;1.92;0.90;;;31.40;78.20;;;;;;5084964;28;20032;-73
2021/12/14 04:37:16;;;;;;;3.42;0.80;;;31.30;77.10;;;;;;5085980;28;20115;-74
2021/12/14 04:39:55;;;;;;;4.03;0.85;;;31.20;77.00;;;;;;5082659;28;20048;-73
2021/12/14 04:54:03;;;;;;;3.67;0.80;;;30.20;78.10;;;;;;5086842;28;20031;-74
2021/12/14 04:56:40;;;;;;;2.60;0.60;;;30.30;78.10;;;;;;5085485;28;20154;-73
2021/12/14 04:59:19;;;;;;;5.15;1.27;;;30.40;77.60;;;;;;5088493;28;20108;-77
2021/12/14 05:01:48;;;;;;;2.42;0.65;;;30.20;78.30;;;;;;5083831;28;20032;-74
2021/12/14 05:04:21;;;;;;;4.68;0.85;;;30.30;78.40;;;;;;5078682;28;20032;-75
2021/12/14 05:07:02;;;;;;;3.58;1.15;;;30.30;77.30;;;;;;5085254;28;20020;-74
2021/12/14 05:09:34;;;;;;;2.58;0.52;;;30.10;77.30;;;;;;5078349;28;20048;-74
2021/12/14 05:12:12;;;;;;;6.28;0.73;;;29.90;78.30;;;;;;5080609;28;20023;-76
2021/12/14 05:14:42;;;;;;;2.40;0.50;;;30.00;78.80;;;;;;5085551;28;20031;-74
2021/12/14 05:17:17;;;;;;;4.22;1.02;;;30.00;79.10;;;;;;5078823;28;20032;-74
2021/12/14 05:19:47;;;;;;;6.13;0.68;;;29.90;78.20;;;;;;5090264;28;20028;-74
2021/12/14 05:22:29;;;;;;;3.88;0.82;;;29.90;77.70;;;;;;5087433;28;20046;-77
2021/12/14 05:25:04;;;;;;;2.15;0.63;;;29.80;77.60;;;;;;5088591;28;20035;-78
2021/12/14 05:27:35;;;;;;;3.78;0.77;;;29.80;77.70;;;;;;5087365;28;20048;-76
2021/12/14 05:30:24;;;;;;;2.08;0.80;;;29.70;77.90;;;;;;5080109;28;20063;-75
2021/12/14 05:33:07;;;;;;;4.93;1.58;;;29.70;78.50;;;;;;5091044;28;20027;-76
2021/12/14 05:35:37;;;;;;;7.32;0.85;;;29.70;79.10;;;;;;5079556;28;20051;-77
2021/12/14 05:38:14;;;;;;;4.78;0.90;;;29.60;78.20;;;;;;5080776;28;20031;-75
2021/12/14 05:40:57;;;;;;;4.40;0.85;;;29.20;78.30;;;;;;5082854;28;20107;-74
2021/12/14 05:43:31;;;;;;;1.33;0.57;;;28.80;79.10;;;;;;5086758;28;20028;-75
2021/12/14 05:46:02;;;;;;;2.13;0.50;;;28.60;80.00;;;;;;5084933;28;20073;-76
2021/12/14 05:48:34;;;;;;;4.00;0.68;;;28.60;79.30;;;;;;5084590;28;20040;-75
2021/12/14 05:51:08;;;;;;;3.53;0.77;;;28.80;80.10;;;;;;5076772;28;20077;-75
2021/12/14 05:53:42;;;;;;;3.20;0.80;;;28.70;79.50;;;;;;5077483;28;20119;-74
2021/12/14 05:56:19;;;;;;;5.20;0.70;;;28.70;79.30;;;;;;5081954;28;20031;-75
2021/12/14 05:58:48;;;;;;;3.70;0.95;;;28.60;79.60;;;;;;5080660;28;20078;-75
2021/12/14 06:01:19;;;;;;;4.20;0.50;;;28.60;79.00;;;;;;5086678;28;20024;-74
2021/12/14 06:03:58;;;;;;;1.75;0.40;;;28.60;79.50;;;;;;5094753;28;20032;-74
2021/12/14 06:06:41;;;;;;;4.90;0.90;;;28.70;79.80;;;;;;5083617;28;20149;-73
2021/12/14 06:09:24;;;;;;;4.20;0.85;;;28.70;79.70;;;;;;5079179;28;20367;-75
2021/12/14 06:11:59;;;;;;;1.63;0.50;;;28.60;80.00;;;;;;5084330;28;20252;-76
2021/12/14 06:14:29;;;;;;;8.82;0.70;;;28.60;79.70;;;;;;5078692;28;20537;-74
2021/12/14 06:17:03;;;;;;;5.95;1.40;;;28.60;79.80;;;;;;5080433;28;20304;-78
2021/12/14 06:19:32;;;;;;;1.88;0.88;;;28.60;79.50;;;;;;5080919;28;20078;-74
2021/12/14 06:22:04;;;;;;;1.30;0.75;;;28.40;79.40;;;;;;5082413;28;20024;-76
2021/12/14 06:24:33;;;;;;;2.28;0.45;;;28.20;79.60;;;;;;5086206;28;20433;-78
2021/12/14 06:27:04;;;;;;;2.85;0.50;;;28.20;80.70;;;;;;5087439;28;20032;-76
2021/12/14 06:29:45;;;;;;;4.05;0.73;;;28.20;81.00;;;;;;5086662;28;20094;-74
2021/12/14 06:32:16;;;;;;;4.20;0.68;;;28.30;80.30;;;;;;5080617;28;20543;-78
2021/12/14 06:34:47;;;;;;;3.97;0.70;;;28.10;81.30;;;;;;5082880;28;20032;-75
2021/12/14 06:37:31;;;;;;;2.40;1.02;;;28.10;81.10;;;;;;5081788;28;20027;-75
2021/12/14 06:40:06;;;;;;;5.40;1.27;;;27.80;81.50;;;;;;5083297;28;20517;-77
2021/12/14 06:42:37;;;;;;;4.35;0.95;;;27.50;82.40;;;;;;5080901;28;20124;-74
2021/12/14 06:45:10;;;;;;;5.45;0.60;;;27.50;82.00;;;;;;5087156;28;20036;-77
2021/12/14 06:47:39;;;;;;;5.68;1.05;;;27.50;81.90;;;;;;5082926;28;20027;-75
2021/12/14 06:50:14;;;;;;;13.70;3.75;;;27.40;82.30;;;;;;5087275;28;20644;-75
2021/12/14 06:52:41;;;;;;;3.65;1.23;;;27.30;82.20;;;;;;5074592;28;20025;-74
2021/12/14 06:55:22;;;;;;;4.55;1.35;;;27.20;82.50;;;;;;5087281;28;20123;-77
2021/12/14 06:57:50;;;;;;;12.50;2.55;;;27.00;83.00;;;;;;5090671;28;20311;-78
2021/12/14 07:00:18;;;;;;;10.55;2.28;;;27.10;82.30;;;;;;5089684;28;20143;-77
2021/12/14 07:02:50;;;;;;;4.97;0.90;;;27.30;81.80;;;;;;5086096;28;20021;-77
2021/12/14 07:05:24;;;;;;;7.75;1.23;;;27.40;82.70;;;;;;5079229;28;20031;-73
2021/12/14 07:07:52;;;;;;;2.72;0.80;;;27.40;82.20;;;;;;5087986;28;20028;-77
2021/12/14 07:10:20;;;;;;;3.95;0.65;;;27.30;82.80;;;;;;5088890;28;20035;-77
2021/12/14 07:12:48;;;;;;;3.22;0.80;;;27.20;82.90;;;;;;5082616;28;20056;-77
2021/12/14 07:15:18;;;;;;;4.70;0.65;;;27.00;82.90;;;;;;5090584;28;20074;-78
2021/12/14 07:18:04;;;;;;;6.18;0.80;;;26.70;83.50;;;;;;5090886;28;20035;-80
2021/12/14 07:20:31;;;;;;;;;;;26.60;83.90;;;;;;5080707;28;20031;-77
2021/12/14 07:23:05;;;;;;;4.20;1.15;;;26.60;84.50;;;;;;5090463;28;19908;-77
2021/12/14 07:25:34;;;;;;;3.25;0.93;;;26.50;84.10;;;;;;5084320;28;20169;-77
2021/12/14 07:28:14;;;;;;;3.97;1.02;;;26.30;84.40;;;;;;5091982;28;20030;-77
2021/12/14 07:30:43;;;;;;;3.70;1.10;;;26.30;85.10;;;;;;5090100;28;20551;-77
2021/12/14 07:33:14;;;;;;;4.72;1.23;;;26.00;85.10;;;;;;5089788;28;20024;-77
2021/12/14 07:35:49;;;;;;;5.47;0.50;;;25.90;85.80;;;;;;5085403;28;20839;-77
2021/12/14 07:38:16;;;;;;;4.93;0.88;;;25.80;86.40;;;;;;5091369;28;20033;-78
2021/12/14 07:40:48;;;;;;;2.28;0.60;;;25.70;87.00;;;;;;5074097;28;20032;-77
2021/12/14 07:43:20;;;;;;;5.85;0.70;;;25.60;87.30;;;;;;5091368;28;20020;-78
2021/12/14 07:45:54;;;;;;;1.42;0.50;;;25.50;87.20;;;;;;5087486;28;20032;-77
2021/12/14 07:48:37;;;;;;;4.05;0.95;;;25.40;87.50;;;;;;5092741;28;20103;-78
2021/12/14 07:51:04;;;;;;;2.67;0.70;;;25.40;87.90;;;;;;5094419;28;20030;-77
2021/12/14 07:53:45;;;;;;;4.10;0.70;;;25.30;87.90;;;;;;5095347;28;20020;-78
2021/12/14 07:56:46;;;;;;;4.00;0.63;;;25.20;88.20;;;;;;5093846;28;20024;-77
2021/12/14 07:59:24;;;;;;;3.97;0.80;;;25.20;88.80;;;;;;5070123;28;20383;-77
2021/12/14 08:02:13;;;;;;;2.40;0.60;;;25.10;88.90;;;;;;5093471;28;20031;-77
2021/12/14 08:04:48;;;;;;;3.47;0.98;;;25.10;89.10;;;;;;5073917;28;20039;-77
2021/12/14 08:07:26;;;;;;;6.25;0.90;;;25.00;89.40;;;;;;5090619;28;20034;-77
2021/12/14 08:09:58;;;;;;;4.38;0.95;;;25.00;89.60;;;;;;5094522;28;20368;-77
2021/12/14 08:12:44;;;;;;;6.05;0.52;;;24.90;89.80;;;;;;5093491;28;20028;-77
2021/12/14 08:15:37;;;;;;;6.38;0.98;;;24.90;90.10;;;;;;5082858;28;20020;-78
2021/12/14 08:18:32;;;;;;;5.63;1.10;;;24.70;90.30;;;;;;5084216;28;20036;-77
2021/12/14 08:21:04;;;;;;;6.35;1.30;;;24.60;90.30;;;;;;5089034;28;20070;-77
2021/12/14 08:23:37;;;;;;;1.77;0.40;;;24.60;90.20;;;;;;5093582;28;20065;-78
2021/12/14 08:26:07;;;;;;;3.13;0.75;;;24.40;90.40;;;;;;5092337;28;20073;-78
2021/12/14 08:28:50;;;;;;;1.85;0.77;;;24.30;90.70;;;;;;5093814;28;20036;-78
2021/12/14 08:31:18;;;;;;;7.13;0.85;;;24.20;91.10;;;;;;5090366;28;20076;-77
2021/12/14 08:33:58;;;;;;;7.20;1.38;;;24.10;91.20;;;;;;5094439;28;20106;-78
2021/12/14 08:36:32;;;;;;;3.13;1.00;;;24.00;91.30;;;;;;5083559;28;20483;-78
2021/12/14 08:39:12;;;;;;;3.38;1.50;;;24.00;91.50;;;;;;5093561;28;20055;-77
2021/12/14 08:41:50;;;;;;;3.80;2.67;;;23.90;91.70;;;;;;5091770;28;20040;-77
2021/12/14 08:44:23;;;;;;;13.80;7.25;;;23.80;92.00;;;;;;5094284;28;20494;-77
2021/12/14 08:46:51;;;;;;;3.25;1.73;;;23.60;92.30;;;;;;5091801;28;20020;-78
2021/12/14 08:49:21;;;;;;;2.28;0.82;;;23.50;92.30;;;;;;5080777;28;20511;-78
2021/12/14 08:51:50;;;;;;;4.40;1.73;;;23.40;92.40;;;;;;5084936;28;20032;-78
2021/12/14 08:54:29;;;;;;;4.20;0.75;;;23.30;92.80;;;;;;5087821;28;20111;-77
2021/12/14 08:57:02;;;;;;;6.65;0.90;;;23.20;93.00;;;;;;5085487;28;20392;-78
2021/12/14 08:59:30;;;;;;;2.97;0.75;;;23.20;93.40;;;;;;5092857;28;20425;-78
2021/12/14 09:01:58;;;;;;;4.25;0.73;;;23.10;93.60;;;;;;5091293;28;20024;-78
2021/12/14 09:04:35;;;;;;;3.97;1.02;;;23.00;93.90;;;;;;5092304;28;20039;-77
2021/12/14 09:07:18;;;;;;;5.05;1.42;;;22.90;94.10;;;;;;5088148;28;20028;-78
2021/12/14 09:09:46;;;;;;;1.50;0.63;;;22.90;94.20;;;;;;5090406;28;20064;-79
2021/12/14 09:12:29;;;;;;;2.40;1.15;;;22.80;94.40;;;;;;5091018;28;20057;-77
2021/12/14 09:15:06;;;;;;;2.55;0.80;;;22.80;94.60;;;;;;5093408;28;20492;-78
2021/12/14 09:17:34;;;;;;;5.57;1.35;;;22.70;94.80;;;;;;5089957;28;20087;-77
2021/12/14 09:20:16;;;;;;;4.10;0.93;;;22.70;95.00;;;;;;5090547;28;20036;-77
2021/12/14 09:22:47;;;;;;;5.10;0.98;;;22.60;95.20;;;;;;5086874;28;20534;-78
2021/12/14 09:25:18;;;;;;;3.67;1.42;;;22.60;95.40;;;;;;5092772;28;20077;-79
2021/12/14 09:27:46;;;;;;;3.75;0.60;;;22.50;95.50;;;;;;5091753;28;20024;-79
2021/12/14 09:30:16;;;;;;;5.63;1.25;;;22.50;95.70;;;;;;5093150;28;20028;-78
2021/12/14 09:32:44;;;;;;;4.43;1.27;;;22.40;96.00;;;;;;5089817;28;20027;-78
2021/12/14 09:35:17;;;;;;;5.75;1.08;;;22.40;96.10;;;;;;5088589;28;20435;-78
2021/12/14 09:37:47;;;;;;;6.53;1.13;;;22.20;96.40;;;;;;5073183;28;20021;-78
2021/12/14 09:40:27;;;;;;;5.57;1.08;;;22.20;96.70;;;;;;5084299;28;20078;-78
2021/12/14 09:42:56;;;;;;;4.63;2.08;;;22.10;96.90;;;;;;5091439;28;20032;-79
2021/12/14 09:45:29;;;;;;;8.50;3.70;;;22.00;97.30;;;;;;5091371;28;20028;-79
2021/12/14 09:47:57;;;;;;;9.27;4.13;;;22.00;97.80;;;;;;5081744;28;20028;-79
2021/12/14 09:50:32;;;;;;;10.43;2.35;;;21.90;98.00;;;;;;5091260;28;20036;-78
2021/12/14 09:53:04;;;;;;;3.37;1.07;;;21.80;98.20;;;;;;5079525;28;20089;-78
2021/12/14 09:55:35;;;;;;;6.70;1.98;;;21.80;98.70;;;;;;5088228;28;20338;-78
2021/12/14 09:58:08;;;;;;;6.30;1.58;;;21.70;99.10;;;;;;5077376;28;20039;-78
2021/12/14 10:00:41;;;;;;;3.63;1.30;;;21.70;99.70;;;;;;5081009;28;20030;-78
2021/12/14 10:03:09;;;;;;;8.27;1.33;;;21.60;99.90;;;;;;5090617;28;20510;-78
2021/12/14 10:05:41;;;;;;;7.38;1.38;;;21.60;99.90;;;;;;5091617;28;20039;-78
2021/12/14 10:08:15;;;;;;;5.65;1.65;;;21.50;99.90;;;;;;5092729;28;20034;-78
2021/12/14 10:11:03;;;;;;;5.53;1.20;;;21.50;99.90;;;;;;5090725;28;20478;-78
2021/12/14 10:13:35;;;;;;;4.25;1.60;;;21.50;99.90;;;;;;5092422;28;20060;-78
2021/12/14 10:16:05;;;;;;;6.93;1.92;;;21.50;99.90;;;;;;5090947;28;20024;-78
2021/12/14 10:18:40;;;;;;;7.75;2.38;;;21.40;99.90;;;;;;5092561;28;20020;-78
2021/12/14 10:21:15;;;;;;;7.05;2.10;;;21.40;99.90;;;;;;5090858;28;20099;-78
2021/12/14 10:23:44;;;;;;;11.98;1.75;;;21.40;99.90;;;;;;5090190;28;20024;-77
2021/12/14 10:26:15;;;;;;;5.28;1.10;;;21.30;99.90;;;;;;5090753;28;20059;-78
2021/12/14 10:28:47;;;;;;;7.70;1.40;;;21.30;99.90;;;;;;5092063;28;20020;-78
2021/12/14 10:31:29;;;;;;;5.38;1.17;;;21.20;99.90;;;;;;5086609;28;20456;-78
2021/12/14 10:33:59;;;;;;;2.92;1.02;;;21.10;99.90;;;;;;5088875;28;20036;-78
2021/12/14 10:36:42;;;;;;;5.18;1.23;;;21.00;99.90;;;;;;5096192;28;20074;-77
2021/12/14 10:39:25;;;;;;;4.68;1.45;;;21.00;99.90;;;;;;5094896;28;20178;-78
2021/12/14 10:44:47;;;;;;;3.30;1.50;;;20.80;99.90;;;;;;5087348;28;20036;-77
2021/12/14 10:47:17;;;;;;;8.68;1.52;;;20.80;99.90;;;;;;5088158;28;20543;-78
2021/12/14 10:49:45;;;;;;;6.88;1.05;;;20.80;99.90;;;;;;5076343;28;20040;-78
2021/12/14 10:52:16;;;;;;;3.47;1.83;;;20.80;99.90;;;;;;5080591;28;20039;-79
2021/12/14 10:54:48;;;;;;;1.67;0.88;;;20.80;99.90;;;;;;5085326;28;20073;-77
2021/12/14 10:57:22;;;;;;;8.23;1.65;;;20.70;99.90;;;;;;5085827;28;20068;-77
2021/12/14 10:59:54;;;;;;;6.68;1.92;;;20.70;99.90;;;;;;5084556;28;20024;-77
2021/12/14 11:02:24;;;;;;;5.35;1.77;;;20.70;99.90;;;;;;5082171;28;20092;-77
2021/12/14 11:04:57;;;;;;;6.15;2.05;;;20.70;99.90;;;;;;5088931;28;20035;-78
2021/12/14 11:07:36;;;;;;;4.90;1.42;;;20.60;99.90;;;;;;5085725;28;20036;-78
2021/12/14 11:10:15;;;;;;;4.32;1.20;;;20.60;99.90;;;;;;5090081;28;20035;-76
2021/12/14 11:12:47;;;;;;;5.63;1.10;;;20.60;99.90;;;;;;5080973;28;20028;-78
2021/12/14 11:15:17;;;;;;;5.78;1.95;;;20.50;99.90;;;;;;5079823;28;20054;-79
2021/12/14 11:20:52;;;;;;;3.33;1.13;;;20.30;99.90;;;;;;5084499;28;20555;-78
2021/12/14 11:23:21;;;;;;;;;;;20.30;99.90;;;;;;5083497;28;20432;-78
2021/12/14 11:25:52;;;;;;;3.35;1.15;;;20.20;99.90;;;;;;5090946;28;19908;-79
2021/12/14 11:28:30;;;;;;;6.28;1.20;;;20.20;99.90;;;;;;5091867;28;20562;-78
2021/12/14 11:31:03;;;;;;;6.03;1.00;;;20.10;99.90;;;;;;5082649;28;20059;-78
2021/12/14 11:33:45;;;;;;;3.42;1.92;;;20.10;99.90;;;;;;5074504;28;20035;-78
2021/12/14 11:36:23;;;;;;;3.53;1.17;;;20.10;99.90;;;;;;5091336;28;20032;-79
2021/12/14 11:38:54;;;;;;;8.82;1.30;;;20.00;99.90;;;;;;5081553;28;20074;-78
2021/12/14 11:41:49;;;;;;;4.63;1.25;;;20.00;99.90;;;;;;5092752;28;20035;-77
2021/12/14 11:44:28;;;;;;;3.70;1.23;;;19.90;99.90;;;;;;5088702;28;20040;-79
2021/12/14 11:47:02;;;;;;;4.30;1.00;;;19.90;99.90;;;;;;5079853;28;20041;-77
2021/12/14 11:49:53;;;;;;;8.65;1.95;;;19.90;99.90;;;;;;5086797;28;20075;-76
2021/12/14 11:53:05;;;;;;;5.75;1.85;;;19.90;99.90;;;;;;5089826;28;20053;-77
2021/12/14 11:55:52;;;;;;;7.03;1.67;;;19.90;99.90;;;;;;5049052;28;20047;-78
2021/12/14 11:58:30;;;;;;;3.70;0.93;;;19.80;99.90;;;;;;5090572;28;20178;-78
2021/12/14 12:01:07;;;;;;;6.47;1.50;;;19.60;99.90;;;;;;5087727;28;20062;-76
2021/12/14 12:03:42;;;;;;;6.88;1.70;;;19.50;99.90;;;;;;5092150;28;20024;-78
2021/12/14 12:09:32;;;;;;;3.38;1.17;;;19.40;99.90;;;;;;5080440;28;20499;-77
2021/12/14 12:12:08;;;;;;;6.82;1.30;;;19.40;99.90;;;;;;5092089;28;20035;-76
2021/12/14 12:14:45;;;;;;;9.10;2.28;;;19.40;99.90;;;;;;5087454;28;20023;-79
2021/12/14 12:17:30;;;;;;;6.10;1.58;;;19.30;99.90;;;;;;5092475;28;20147;-78
2021/12/14 12:20:19;;;;;;;5.88;1.85;;;19.30;99.90;;;;;;5094363;28;20024;-78
2021/12/14 12:23:04;;;;;;;5.35;1.67;;;19.20;99.90;;;;;;5093379;28;20115;-78
2021/12/14 12:26:08;;;;;;;8.10;1.63;;;19.30;99.90;;;;;;5092300;28;20499;-78
2021/12/14 12:28:40;;;;;;;3.13;1.38;;;19.20;99.90;;;;;;5091289;28;20567;-78
2021/12/14 12:31:11;;;;;;;3.70;1.40;;;19.10;99.90;;;;;;5084819;28;20111;-79
2021/12/14 12:33:45;;;;;;;2.45;1.13;;;19.10;99.90;;;;;;5085392;28;20032;-77
2021/12/14 12:36:16;;;;;;;4.40;1.20;;;19.00;99.90;;;;;;5085911;28;20266;-78
2021/12/14 12:38:59;;;;;;;4.60;1.33;;;19.00;99.90;;;;;;5089748;28;20044;-77
2021/12/14 12:41:48;;;;;;;4.55;1.10;;;18.90;99.90;;;;;;5086371;28;20016;-77
2021/12/14 12:44:19;;;;;;;5.22;1.92;;;18.90;99.90;;;;;;5082144;28;20023;-79
2021/12/14 12:46:46;;;;;;;3.53;1.05;;;18.90;99.90;;;;;;5084946;28;20031;-79
2021/12/14 12:49:19;;;;;;;6.68;1.60;;;18.90;99.90;;;;;;5085760;28;20040;-79
2021/12/14 12:52:06;;;;;;;8.13;1.98;;;18.90;99.90;;;;;;5088792;28;20035;-78
2021/12/14 12:54:40;;;;;;;6.20;1.60;;;18.80;99.90;;;;;;5079827;28;20480;-79
2021/12/14 12:57:13;;;;;;;4.28;1.33;;;18.80;99.90;;;;;;5089789;28;20035;-78
2021/12/14 13:00:07;;;;;;;4.65;1.15;;;18.80;99.90;;;;;;5086169;28;20012;-78
2021/12/14 13:02:37;;;;;;;3.15;1.10;;;18.70;99.90;;;;;;5086494;28;20058;-76
2021/12/14 13:05:10;;;;;;;4.30;1.35;;;18.70;99.90;;;;;;5090088;28;20031;-77
2021/12/14 13:07:45;;;;;;;3.90;1.17;;;18.60;99.90;;;;;;5079365;28;20028;-78
2021/12/14 13:10:22;;;;;;;4.60;1.60;;;18.60;99.90;;;;;;5084988;28;20036;-76
2021/12/14 13:13:11;;;;;;;6.57;1.40;;;18.60;99.90;;;;;;5086694;28;20034;-78
2021/12/14 13:15:47;;;;;;;5.22;1.58;;;18.60;99.90;;;;;;5090141;28;20031;-77
2021/12/14 13:18:33;;;;;;;6.90;1.80;;;18.60;99.90;;;;;;5083971;28;20032;-76
2021/12/14 13:21:24;;;;;;;9.07;3.92;;;18.50;99.90;;;;;;5084982;28;20036;-78
2021/12/14 13:23:58;;;;;;;10.60;2.00;;;18.50;99.90;;;;;;5088140;28;20116;-80
2021/12/14 13:26:51;;;;;;;8.75;1.85;;;18.50;99.90;;;;;;5089578;28;20111;-81
2021/12/14 13:29:28;;;;;;;4.55;1.17;;;18.50;99.90;;;;;;5080914;28;20031;-78
2021/12/14 13:32:03;;;;;;;4.80;1.70;;;18.50;99.90;;;;;;5083762;28;20028;-79
2021/12/14 13:34:49;;;;;;;6.15;1.35;;;18.40;99.90;;;;;;5081691;28;20032;-78
2021/12/14 13:37:29;;;;;;;4.35;1.20;;;18.40;99.90;;;;;;5083625;28;20110;-80
2021/12/14 13:39:56;;;;;;;4.60;1.08;;;18.30;99.90;;;;;;5091730;28;20336;-78
2021/12/14 13:42:53;;;;;;;5.95;1.63;;;18.30;99.90;;;;;;5084356;28;20024;-78
2021/12/14 13:45:35;;;;;;;4.75;1.88;;;18.20;99.90;;;;;;5044581;28;20136;-77
2021/12/14 13:48:06;;;;;;;7.53;2.25;;;18.20;99.90;;;;;;5082879;28;20054;-78
2021/12/14 13:50:44;;;;;;;4.55;1.98;;;18.20;99.90;;;;;;5091181;28;20035;-78
2021/12/14 13:53:12;;;;;;;10.45;1.88;;;18.30;99.90;;;;;;5075367;28;20025;-79
2021/12/14 13:55:48;;;;;;;6.30;1.85;;;18.20;99.90;;;;;;5082174;28;20058;-77